This is the latest recevied weather packets stored in our database for station/object SR2WXM. If no packets are shown the sender has not sent any weather packets the latest 1 day(s).
| Time | Temp. | Humidity | Pressure | Rain* | Wind** | Luminosity | Snow |
|---|---|---|---|---|---|---|---|
| 1777974302 | 17.78° C | 85% | 1007.7 hPa | 0 mm | 0.45 m/s, 0° | - | - |
| 1777973403 | 16.67° C | 86% | 1007.7 hPa | 0 mm | 0.45 m/s, 278° | - | - |
| 1777972503 | 16.67° C | 84% | 1007.7 hPa | 0 mm | 1.34 m/s, 66° | - | - |
| 1777971602 | 16.67° C | 84% | 1007.7 hPa | 0 mm | 1.34 m/s, 0° | - | - |
| 1777970702 | 16.67° C | 83% | 1007.7 hPa | 0 mm | 0.89 m/s, 333° | - | - |
| 1777969802 | 16.67° C | 78% | 1007.7 hPa | 0 mm | 3.13 m/s, 60° | - | - |
| 1777968903 | 16.67° C | 76% | 1007.7 hPa | 0 mm | 2.68 m/s, 42° | - | - |
| 1777968004 | 16.67° C | 76% | 1008.1 hPa | 0 mm | 3.58 m/s, 40° | - | - |
| 1777967102 | 17.78° C | 74% | 1008.1 hPa | 0 mm | 2.24 m/s, 26° | - | - |
| 1777966204 | 16.67° C | 80% | 1008.4 hPa | 0 mm | 1.79 m/s, 30° | - | - |
| 1777965303 | 15.56° C | 81% | 1008.4 hPa | 0 mm | 1.79 m/s, 0° | - | - |
| 1777964402 | 15.56° C | 85% | 1008.4 hPa | 0 mm | 1.34 m/s, 30° | - | - |
| 1777963502 | 15° C | 86% | 1008.4 hPa | 0 mm | 0.45 m/s, 239° | - | - |
| 1777962603 | 15° C | 86% | 1008.4 hPa | 0 mm | 1.34 m/s, 28° | - | - |
| 1777961702 | 13.89° C | 94% | 1008.4 hPa | 0 mm | 1.34 m/s, 232° | - | - |
| 1777960803 | 12.78° C | 94% | 1008.8 hPa | 0 mm | 1.79 m/s, 28° | - | - |
| 1777959903 | 12.78° C | 96% | 1008.8 hPa | 0 mm | 1.34 m/s, 21° | - | - |
| 1777959001 | 12.78° C | 98% | 1008.8 hPa | 0 mm | 0.45 m/s, 356° | - | - |
| 1777958104 | 12.78° C | 98% | 1008.8 hPa | 1.27 mm | 0.45 m/s, 348° | - | - |
| 1777957202 | 11.67° C | 98% | 1009.4 hPa | 0 mm | 0 m/s | - | - |
| 1777956302 | 11.67° C | 98% | 1009.4 hPa | 1.27 mm | 0 m/s | - | - |
| 1777955402 | 11.67° C | 96% | 1009.1 hPa | 0 mm | 0 m/s | - | - |
| 1777954502 | 12.78° C | 94% | 1009.1 hPa | 0 mm | 1.34 m/s, 305° | - | - |
| 1777953602 | 12.78° C | 94% | 1009.4 hPa | 0 mm | 1.34 m/s, 305° | - | - |
| 1777952702 | 12.78° C | 91% | 1009.4 hPa | 0 mm | 0 m/s | - | - |
* Rain latest hour (hover to see other rain measurements)
** Current wind speed in m/s (hover to see current wind gust speed)